This is the latest recevied weather packets stored in our database for station/object WX6YYZ. If no packets are shown the sender has not sent any weather packets the latest 10 day(s).
| Time | Temp. | Humidity | Pressure | Rain* | Wind** | Luminosity | Snow |
|---|---|---|---|---|---|---|---|
| 1777509461 | 21.67° C | 52% | 1013.9 hPa | 0 mm | - | - | - |
| 1777509160 | 21.67° C | 51% | 1013.9 hPa | 0 mm | - | - | - |
| 1777507054 | 22.22° C | 49% | 1013.5 hPa | 0 mm | - | - | - |
| 1777506088 | 22.78° C | 47% | 1013.9 hPa | 0 mm | - | - | - |
| 1777505123 | 22.78° C | 46% | 1013.5 hPa | 0 mm | - | - | - |
| 1777502684 | 23.33° C | 46% | 1013.9 hPa | 0 mm | - | - | - |
| 1777498405 | 23.89° C | 45% | 1014.6 hPa | 0 mm | - | - | - |
| 1777498104 | 23.89° C | 44% | 1014.6 hPa | 0 mm | - | - | - |
| 1777497076 | 23.89° C | 45% | 1014.6 hPa | 0 mm | - | - | - |
| 1777492134 | 23.33° C | 35% | 1015.2 hPa | 0 mm | - | - | - |
| 1777489093 | 22.22° C | 40% | 1016.3 hPa | 0 mm | - | - | - |
| 1777488792 | 22.22° C | 42% | 1016.3 hPa | 0 mm | - | - | - |
| 1777487587 | 21.67° C | 44% | 1016.3 hPa | 0 mm | - | - | - |
| 1777485780 | 20.56° C | 48% | 1016.6 hPa | 0 mm | - | - | - |
| 1777483909 | 19.44° C | 52% | 1016.9 hPa | 0 mm | - | - | - |
| 1777480899 | 19.44° C | 54% | 1017.6 hPa | 0 mm | - | - | - |
| 1777479632 | 17.78° C | 60% | 1017.6 hPa | 0 mm | - | - | - |
| 1777478698 | 17.22° C | 61% | 1017.6 hPa | 0 mm | - | - | - |
| 1777474962 | 13.33° C | 74% | 1017.9 hPa | 0 mm | - | - | - |
| 1777472853 | 11.11° C | 81% | 1017.9 hPa | 0 mm | - | - | - |
| 1777471285 | 10.56° C | 81% | 1017.9 hPa | 0 mm | - | - | - |
| 1777470683 | 10° C | 81% | 1017.9 hPa | 0 mm | - | - | - |
| 1777470082 | 10° C | 81% | 1017.9 hPa | 0 mm | - | - | - |
| 1777469147 | 10° C | 81% | 1017.9 hPa | 0 mm | - | - | - |
| 1777467611 | 10.56° C | 80% | 1017.9 hPa | 0 mm | - | - | - |
* Rain latest hour (hover to see other rain measurements)
** Current wind speed in m/s (hover to see current wind gust speed)